Time;durP1;ratioP1;P1;durP2;ratioP2;P2;SDS_P1;SDS_P2;PMS_P1;PMS_P2;Temp;Humidity;BMP_temperature;BMP_pressure;BME280_temperature;BME280_humidity;BME280_pressure;Samples;Min_cycle;Max_cycle;Signal;HPM_P1;HPM_P2
2020/12/15 00:02:09;;;;;;;;;;;4.80;99.90;;;;;;5018175;28;19963;-88
2020/12/15 00:04:37;;;;;;;;;;;4.90;99.90;;;;;;5018721;28;19921;-88
2020/12/15 00:07:03;;;;;;;;;;;4.90;99.90;;;;;;5033548;28;20007;-91
2020/12/15 00:09:28;;;;;;;;;;;4.90;99.90;;;;;;5016200;28;20004;-90
2020/12/15 00:11:54;;;;;;;;;;;4.80;99.90;;;;;;5016537;28;19913;-91
2020/12/15 00:14:19;;;;;;;;;;;4.80;99.90;;;;;;5016308;28;19909;-90
2020/12/15 00:16:47;;;;;;;;;;;4.80;99.90;;;;;;5016346;28;19909;-90
2020/12/15 00:19:13;;;;;;;;;;;4.80;99.90;;;;;;5016421;28;19921;-90
2020/12/15 00:21:47;;;;;;;;;;;4.80;99.90;;;;;;5015918;28;19919;-90
2020/12/15 00:24:12;;;;;;;;;;;4.80;99.90;;;;;;5015663;28;19921;-90
2020/12/15 00:26:38;;;;;;;;;;;4.80;99.90;;;;;;5015796;28;20013;-89
2020/12/15 00:29:03;;;;;;;;;;;4.80;99.90;;;;;;5015886;28;20284;-90
2020/12/15 00:31:33;;;;;;;;;;;4.80;99.90;;;;;;5012411;28;19921;-91
2020/12/15 00:33:59;;;;;;;;;;;4.80;99.90;;;;;;5011993;28;19913;-88
2020/12/15 00:36:26;;;;;;;;;;;4.80;99.90;;;;;;5012606;28;20490;-89
2020/12/15 00:38:52;;;;;;;;;;;4.80;99.90;;;;;;5012518;28;19917;-89
2020/12/15 00:41:20;;;;;;;;;;;4.90;99.90;;;;;;5012032;28;19924;-90
2020/12/15 00:43:46;;;;;;;;;;;4.80;99.90;;;;;;5010763;28;19925;-88
2020/12/15 00:46:12;;;;;;;;;;;4.90;99.90;;;;;;5011970;28;19920;-89
2020/12/15 00:48:37;;;;;;;;;;;4.80;99.90;;;;;;5012216;28;19918;-89
2020/12/15 00:51:05;;;;;;;;;;;4.90;99.90;;;;;;5011344;28;20428;-88
2020/12/15 00:53:33;;;;;;;;;;;4.80;99.90;;;;;;5012054;28;19914;-89
2020/12/15 00:56:01;;;;;;;;;;;4.80;99.90;;;;;;5011699;28;19999;-89
2020/12/15 00:58:27;;;;;;;;;;;4.90;99.90;;;;;;5012102;28;20316;-89
2020/12/15 01:00:52;;;;;;;;;;;4.90;99.90;;;;;;5011903;28;19921;-90
2020/12/15 01:03:18;;;;;;;;;;;4.80;99.90;;;;;;5011779;28;19921;-91
2020/12/15 01:05:43;;;;;;;;;;;4.80;99.90;;;;;;5011391;28;19939;-91
2020/12/15 01:08:11;;;;;;;;;;;4.90;99.90;;;;;;5011413;28;20323;-92
2020/12/15 01:10:37;;;;;;;;;;;4.90;99.90;;;;;;5011759;28;19926;-91
2020/12/15 01:13:02;;;;;;;;;;;4.90;99.90;;;;;;5011425;28;19914;-92
2020/12/15 01:15:28;;;;;;;;;;;4.90;99.90;;;;;;5011390;28;19968;-90
2020/12/15 01:17:56;;;;;;;;;;;4.90;99.90;;;;;;5011039;28;19937;-89
2020/12/15 01:20:24;;;;;;;;;;;4.90;99.90;;;;;;5011980;28;20424;-91
2020/12/15 01:22:49;;;;;;;;;;;4.90;99.90;;;;;;5010668;28;19921;-90
2020/12/15 01:25:17;;;;;;;;;;;4.80;99.90;;;;;;5011372;28;19914;-90
2020/12/15 01:27:47;;;;;;;;;;;4.90;99.90;;;;;;5011897;28;19914;-90
2020/12/15 01:30:15;;;;;;;;;;;4.80;99.90;;;;;;5012173;28;20428;-92
2020/12/15 01:32:43;;;;;;;;;;;4.80;99.90;;;;;;5011628;28;19925;-90
2020/12/15 01:35:09;;;;;;;;;;;4.80;99.90;;;;;;5011752;28;19917;-91
2020/12/15 01:37:34;;;;;;;;;;;4.80;99.90;;;;;;5011184;28;20004;-89
2020/12/15 01:40:05;;;;;;;;;;;4.80;99.90;;;;;;5011061;28;19921;-90
2020/12/15 01:42:31;;;;;;;;;;;4.90;99.90;;;;;;5011169;28;19920;-89
2020/12/15 01:44:56;;;;;;;;;;;4.90;99.90;;;;;;5011045;28;19925;-92
2020/12/15 01:47:22;;;;;;;;;;;4.80;99.90;;;;;;5010779;28;19933;-90
2020/12/15 01:49:48;;;;;;;;;;;4.80;99.90;;;;;;5011301;28;19920;-89
2020/12/15 01:52:17;;;;;;;;;;;4.80;99.90;;;;;;5011108;28;19914;-89
2020/12/15 01:54:44;;;;;;;;;;;4.80;99.90;;;;;;5010568;28;19969;-89
2020/12/15 01:57:10;;;;;;;;;;;4.80;99.90;;;;;;5010966;28;20000;-89
2020/12/15 01:59:35;;;;;;;;;;;4.80;99.90;;;;;;5010746;28;20403;-91
2020/12/15 02:02:03;;;;;;;;;;;4.80;99.90;;;;;;5010345;28;19963;-90
2020/12/15 02:04:31;;;;;;;;;;;4.80;99.90;;;;;;5010491;28;19922;-91
2020/12/15 02:07:00;;;;;;;;;;;4.80;99.90;;;;;;5010704;28;19917;-90
2020/12/15 02:09:29;;;;;;;;;;;4.80;99.90;;;;;;5010569;28;19935;-89
2020/12/15 02:11:55;;;;;;;;;;;4.70;99.90;;;;;;5012003;28;19913;-91
2020/12/15 02:14:20;;;;;;;;;;;4.80;99.90;;;;;;5010684;28;19964;-90
2020/12/15 02:16:53;;;;;;;;;;;4.80;99.90;;;;;;5010737;28;19963;-89
2020/12/15 02:19:20;;;;;;;;;;;4.80;99.90;;;;;;5010983;28;19957;-90
2020/12/15 02:21:55;;;;;;;;;;;4.80;99.90;;;;;;5010119;28;20365;-90
2020/12/15 02:24:21;;;;;;;;;;;4.80;99.90;;;;;;5010517;28;19922;-91
2020/12/15 02:26:47;;;;;;;;;;;4.80;99.90;;;;;;5010222;28;19913;-88
2020/12/15 02:29:15;;;;;;;;;;;4.80;99.90;;;;;;5010004;28;20409;-88
2020/12/15 02:31:42;;;;;;;;;;;4.90;99.90;;;;;;5009880;28;19929;-92
2020/12/15 02:34:10;;;;;;;;;;;4.90;99.90;;;;;;5010402;28;20015;-87
2020/12/15 02:36:36;;;;;;;;;;;5.00;99.90;;;;;;5010179;28;19920;-90
2020/12/15 02:39:11;;;;;;;;;;;5.00;99.90;;;;;;5011811;28;20196;-90
2020/12/15 02:41:37;;;;;;;;;;;5.00;99.90;;;;;;5012347;28;19918;-88
2020/12/15 02:44:03;;;;;;;;;;;5.00;99.90;;;;;;5010278;28;19921;-91
2020/12/15 02:46:31;;;;;;;;;;;5.00;99.90;;;;;;5010074;28;20008;-90
2020/12/15 02:48:57;;;;;;;;;;;5.10;99.90;;;;;;5010338;28;19926;-89
2020/12/15 02:51:25;;;;;;;;;;;5.10;99.90;;;;;;5010533;28;19917;-90
2020/12/15 02:53:51;;;;;;;;;;;5.10;99.90;;;;;;5009700;28;19913;-92
2020/12/15 02:56:26;;;;;;;;;;;5.00;99.90;;;;;;5009833;28;19921;-90
2020/12/15 02:58:53;;;;;;;;;;;5.10;99.90;;;;;;5010455;28;20289;-90
2020/12/15 03:01:22;;;;;;;;;;;5.10;99.90;;;;;;5010367;28;19920;-89
2020/12/15 03:03:47;;;;;;;;;;;5.00;99.90;;;;;;5009549;28;19998;-89
2020/12/15 03:06:13;;;;;;;;;;;5.10;99.90;;;;;;5011528;28;20357;-88
2020/12/15 03:08:41;;;;;;;;;;;5.10;99.90;;;;;;5013983;28;19913;-89
2020/12/15 03:11:09;;;;;;;;;;;5.10;99.90;;;;;;5013905;28;19993;-90
2020/12/15 03:13:35;;;;;;;;;;;5.10;99.90;;;;;;5013929;28;19913;-88
2020/12/15 03:16:00;;;;;;;;;;;5.10;99.90;;;;;;5013725;28;19914;-89
2020/12/15 03:18:26;;;;;;;;;;;5.20;99.90;;;;;;4994133;28;19914;-90
2020/12/15 03:20:52;;;;;;;;;;;5.10;99.90;;;;;;4993874;28;20007;-91
2020/12/15 03:23:23;;;;;;;;;;;5.10;99.90;;;;;;4993397;28;20213;-91
2020/12/15 03:25:52;;;;;;;;;;;5.10;99.90;;;;;;4994169;28;19914;-90
2020/12/15 03:28:21;;;;;;;;;;;5.10;99.90;;;;;;4993665;28;19925;-91
2020/12/15 03:30:49;;;;;;;;;;;5.20;99.90;;;;;;4994867;28;19978;-89
2020/12/15 03:33:14;;;;;;;;;;;5.20;99.90;;;;;;4997085;28;20018;-89
2020/12/15 03:35:40;;;;;;;;;;;5.20;99.90;;;;;;5013230;28;19956;-91
2020/12/15 03:38:06;;;;;;;;;;;5.20;99.90;;;;;;4996906;28;19949;-91
2020/12/15 03:40:31;;;;;;;;;;;5.20;99.90;;;;;;4996959;28;19913;-92
2020/12/15 03:42:57;;;;;;;;;;;5.20;99.90;;;;;;4996732;28;19962;-91
2020/12/15 03:45:25;;;;;;;;;;;5.20;99.90;;;;;;4996589;28;19996;-89
2020/12/15 03:47:50;;;;;;;;;;;5.20;99.90;;;;;;4996778;28;19914;-90
2020/12/15 03:50:15;;;;;;;;;;;5.30;99.90;;;;;;4996347;28;19936;-90
2020/12/15 03:52:41;;;;;;;;;;;5.20;99.90;;;;;;4996799;28;19914;-88
2020/12/15 03:55:07;;;;;;;;;;;5.20;99.90;;;;;;4996890;28;19983;-89
2020/12/15 03:57:35;;;;;;;;;;;5.20;99.90;;;;;;4996765;28;19913;-89
2020/12/15 04:00:03;;;;;;;;;;;5.20;99.90;;;;;;4996741;28;19935;-91
2020/12/15 04:02:28;;;;;;;;;;;5.20;99.90;;;;;;4996466;28;20365;-91
2020/12/15 04:04:56;;;;;;;;;;;5.20;99.90;;;;;;4996668;28;19967;-90
2020/12/15 04:07:22;;;;;;;;;;;5.20;99.90;;;;;;4996587;28;19949;-89
2020/12/15 04:09:50;;;;;;;;;;;5.20;99.90;;;;;;5014366;28;19953;-90
2020/12/15 04:12:20;;;;;;;;;;;5.20;99.90;;;;;;4996786;28;19913;-91
2020/12/15 04:14:48;;;;;;;;;;;5.20;99.90;;;;;;4996375;28;20365;-90
2020/12/15 04:17:14;;;;;;;;;;;5.20;99.90;;;;;;5005762;28;19960;-90
2020/12/15 04:19:49;;;;;;;;;;;5.20;99.90;;;;;;5015917;28;19971;-90
2020/12/15 04:22:17;;;;;;;;;;;5.20;99.90;;;;;;5015854;28;19912;-91
2020/12/15 04:24:43;;;;;;;;;;;5.30;99.90;;;;;;5015608;28;19925;-90
2020/12/15 04:27:08;;;;;;;;;;;5.40;99.90;;;;;;5015782;28;19955;-90
2020/12/15 04:29:36;;;;;;;;;;;5.40;99.90;;;;;;5015860;28;19913;-89
2020/12/15 04:32:02;;;;;;;;;;;5.40;99.90;;;;;;5015203;28;19921;-90
2020/12/15 04:34:32;;;;;;;;;;;5.40;99.90;;;;;;5015796;28;19967;-89
2020/12/15 04:36:58;;;;;;;;;;;5.40;99.90;;;;;;5015788;28;19921;-88
2020/12/15 04:39:24;;;;;;;;;;;5.40;99.90;;;;;;5015472;28;19919;-92
2020/12/15 04:41:50;;;;;;;;;;;5.30;99.90;;;;;;5015038;28;20351;-89
2020/12/15 04:44:18;;;;;;;;;;;5.30;99.90;;;;;;5014893;28;20011;-91
2020/12/15 04:46:54;;;;;;;;;;;5.30;99.90;;;;;;5012320;28;19948;-90
2020/12/15 04:49:21;;;;;;;;;;;5.30;99.90;;;;;;5015247;28;19918;-90
2020/12/15 04:51:55;;;;;;;;;;;5.30;99.90;;;;;;5015124;28;20051;-92
2020/12/15 04:54:29;;;;;;;;;;;5.30;99.90;;;;;;5014662;28;19917;-90
2020/12/15 04:57:02;;;;;;;;;;;5.30;99.90;;;;;;5012162;28;19913;-90
2020/12/15 04:59:32;;;;;;;;;;;5.30;99.90;;;;;;5015151;28;20367;-90
2020/12/15 05:01:58;;;;;;;;;;;5.40;99.90;;;;;;5012772;28;19917;-89
2020/12/15 05:04:24;;;;;;;;;;;5.40;99.90;;;;;;5014290;28;19928;-89
2020/12/15 05:06:51;;;;;;;;;;;5.50;99.90;;;;;;5014845;28;19913;-88
2020/12/15 05:09:21;;;;;;;;;;;5.50;99.90;;;;;;5014213;28;20357;-89
2020/12/15 05:11:47;;;;;;;;;;;5.50;99.90;;;;;;5014159;28;19921;-90
2020/12/15 05:14:15;;;;;;;;;;;5.50;99.90;;;;;;5014501;28;20437;-90
2020/12/15 05:16:40;;;;;;;;;;;5.50;99.90;;;;;;5015021;28;19914;-90
2020/12/15 05:19:06;;;;;;;;;;;5.50;99.90;;;;;;5015787;28;19996;-90
2020/12/15 05:21:31;;;;;;;;;;;5.50;99.90;;;;;;5014344;28;19944;-90
2020/12/15 05:23:58;;;;;;;;;;;5.50;99.90;;;;;;5014353;28;19925;-90
2020/12/15 05:26:26;;;;;;;;;;;5.50;99.90;;;;;;5014931;28;19915;-92
2020/12/15 05:29:01;;;;;;;;;;;5.60;99.90;;;;;;5014444;28;19939;-89
2020/12/15 05:31:27;;;;;;;;;;;5.50;99.90;;;;;;5014261;28;20011;-91
2020/12/15 05:33:57;;;;;;;;;;;5.50;99.90;;;;;;5014276;28;20503;-91
2020/12/15 05:36:25;;;;;;;;;;;5.50;99.90;;;;;;5015317;28;19920;-89
2020/12/15 05:39:07;;;;;;;;;;;5.50;99.90;;;;;;5033597;28;19913;-89
2020/12/15 05:41:35;;;;;;;;;;;5.50;99.90;;;;;;5015755;28;19913;-89
2020/12/15 05:44:04;;;;;;;;;;;5.50;99.90;;;;;;5013594;28;20708;-91
2020/12/15 05:46:33;;;;;;;;;;;5.50;99.90;;;;;;5014422;28;20364;-90
2020/12/15 05:49:06;;;;;;;;;;;5.40;99.90;;;;;;5014150;28;19956;-90
2020/12/15 05:51:38;;;;;;;;;;;5.40;99.90;;;;;;5014481;28;19947;-90
2020/12/15 05:54:08;;;;;;;;;;;5.40;99.90;;;;;;5014437;28;19924;-91
2020/12/15 05:56:37;;;;;;;;;;;5.50;99.90;;;;;;5013337;28;19920;-91
2020/12/15 05:59:18;;;;;;;;;;;5.50;99.90;;;;;;5013704;28;19921;-90
2020/12/15 06:01:47;;;;;;;;;;;5.50;99.90;;;;;;5012499;28;19959;-90
2020/12/15 06:04:15;;;;;;;;;;;5.50;99.90;;;;;;5013911;28;19917;-89
2020/12/15 06:06:41;;;;;;;;;;;5.60;99.90;;;;;;5014033;28;19920;-89
2020/12/15 06:09:07;;;;;;;;;;;5.60;99.90;;;;;;5014151;28;19913;-89
2020/12/15 06:11:33;;;;;;;;;;;5.60;99.90;;;;;;5013692;28;20008;-90
2020/12/15 06:14:00;;;;;;;;;;;5.60;99.90;;;;;;5013853;28;20008;-91
2020/12/15 06:16:25;;;;;;;;;;;5.60;99.90;;;;;;5013873;28;20344;-90
2020/12/15 06:18:51;;;;;;;;;;;5.70;99.90;;;;;;5014038;28;19975;-90
2020/12/15 06:21:16;;;;;;;;;;;5.60;99.90;;;;;;5013935;28;19913;-89
2020/12/15 06:23:43;;;;;;;;;;;5.60;99.90;;;;;;5013463;28;19927;-89
2020/12/15 06:26:09;;;;;;;;;;;5.60;99.90;;;;;;5014204;28;19975;-90
2020/12/15 06:28:34;;;;;;;;;;;5.70;99.90;;;;;;5013539;28;19913;-90
2020/12/15 06:31:02;;;;;;;;;;;5.60;99.90;;;;;;5012836;28;19943;-89
2020/12/15 06:33:34;;;;;;;;;;;5.70;99.90;;;;;;5013827;28;19928;-90
2020/12/15 06:36:00;;;;;;;;;;;5.70;99.90;;;;;;5013592;28;20031;-91
2020/12/15 06:38:25;;;;;;;;;;;5.70;99.90;;;;;;5013481;28;20413;-90
2020/12/15 06:40:51;;;;;;;;;;;5.80;99.90;;;;;;5013068;28;20351;-90
2020/12/15 06:43:27;;;;;;;;;;;5.80;99.90;;;;;;5013305;28;19921;-90
2020/12/15 06:46:06;;;;;;;;;;;5.80;99.90;;;;;;5013834;28;20380;-90
2020/12/15 06:48:32;;;;;;;;;;;5.80;99.90;;;;;;5013874;28;19913;-90
2020/12/15 06:51:03;;;;;;;;;;;5.80;99.90;;;;;;5013921;28;19983;-90
2020/12/15 06:53:31;;;;;;;;;;;5.80;99.90;;;;;;5013603;28;19913;-90
2020/12/15 06:56:05;;;;;;;;;;;5.80;99.90;;;;;;5012487;28;19917;-90
2020/12/15 06:58:33;;;;;;;;;;;5.80;99.90;;;;;;5013896;28;20328;-89
2020/12/15 07:00:59;;;;;;;;;;;5.80;99.90;;;;;;5013627;28;19939;-89
2020/12/15 07:03:35;;;;;;;;;;;5.80;99.90;;;;;;5012896;28;20408;-89
2020/12/15 07:06:07;;;;;;;;;;;5.90;99.90;;;;;;5013634;28;19999;-89
2020/12/15 07:08:33;;;;;;;;;;;5.80;99.90;;;;;;5013153;28;19913;-90
2020/12/15 07:10:58;;;;;;;;;;;5.80;99.90;;;;;;5013470;28;19959;-90
2020/12/15 07:13:24;;;;;;;;;;;5.80;99.90;;;;;;5013725;28;20337;-90
2020/12/15 07:15:52;;;;;;;;;;;5.80;99.90;;;;;;5013204;28;19920;-89
2020/12/15 07:18:17;;;;;;;;;;;5.80;99.90;;;;;;5012932;28;19967;-90
2020/12/15 07:20:44;;;;;;;;;;;5.80;99.90;;;;;;5012718;28;19963;-90
2020/12/15 07:23:10;;;;;;;;;;;5.80;99.90;;;;;;5013221;28;19944;-90
2020/12/15 07:25:35;;;;;;;;;;;5.80;99.90;;;;;;5013101;28;19913;-91
2020/12/15 07:28:01;;;;;;;;;;;5.80;99.90;;;;;;5013049;28;19920;-91
2020/12/15 07:30:27;;;;;;;;;;;5.80;99.90;;;;;;5013283;28;19913;-91
2020/12/15 07:32:52;;;;;;;;;;;5.80;99.90;;;;;;5013000;28;19932;-91
2020/12/15 07:35:25;;;;;;;;;;;5.80;99.90;;;;;;5013378;28;20117;-90
2020/12/15 07:37:54;;;;;;;;;;;5.80;99.90;;;;;;5013215;28;19913;-90
2020/12/15 07:40:20;;;;;;;;;;;5.80;99.90;;;;;;5013449;28;20355;-90
2020/12/15 07:42:54;;;;;;;;;;;5.80;99.90;;;;;;5012633;28;19913;-90
2020/12/15 07:45:21;;;;;;;;;;;5.80;99.90;;;;;;5012619;28;20265;-91
2020/12/15 07:47:47;;;;;;;;;;;5.80;99.90;;;;;;5012975;28;19935;-91
2020/12/15 07:50:15;;;;;;;;;;;5.90;99.90;;;;;;5013312;28;19914;-91
2020/12/15 07:52:43;;;;;;;;;;;5.90;99.90;;;;;;5014765;28;20407;-91
2020/12/15 07:55:15;;;;;;;;;;;5.90;99.90;;;;;;5017061;28;19913;-89
2020/12/15 07:57:43;;;;;;;;;;;5.90;99.90;;;;;;5016355;28;20249;-90
2020/12/15 08:00:13;;;;;;;;;;;5.90;99.90;;;;;;5016436;28;19920;-93
2020/12/15 08:02:42;;;;;;;;;;;6.00;99.90;;;;;;5016061;28;19909;-91
2020/12/15 08:05:15;;;;;;;;;;;5.90;99.90;;;;;;5016115;28;20466;-91
2020/12/15 08:07:41;;;;;;;;;;;5.90;99.90;;;;;;5016469;28;20279;-90
2020/12/15 08:10:09;;;;;;;;;;;6.00;99.90;;;;;;5016046;28;19939;-91
2020/12/15 08:12:35;;;;;;;;;;;6.00;99.90;;;;;;5016298;28;19949;-91
2020/12/15 08:15:02;;;;;;;;;;;6.00;99.90;;;;;;5015722;28;19920;-90
2020/12/15 08:17:30;;;;;;;;;;;6.10;99.90;;;;;;5016125;28;19909;-90
2020/12/15 08:20:07;;;;;;;;;;;6.20;99.90;;;;;;5016113;28;19919;-91
2020/12/15 08:22:39;;;;;;;;;;;6.20;99.90;;;;;;5032517;28;19913;-90
2020/12/15 08:25:07;;;;;;;;;;;6.20;99.90;;;;;;5015666;28;19971;-90
2020/12/15 08:27:36;;;;;;;;;;;6.30;99.90;;;;;;5015577;28;19917;-91
2020/12/15 08:30:14;;;;;;;;;;;6.20;99.90;;;;;;5016295;28;19916;-90
2020/12/15 08:32:44;;;;;;;;;;;6.30;99.90;;;;;;5015639;28;19991;-90
2020/12/15 08:35:10;;;;;;;;;;;6.40;99.90;;;;;;5015682;28;19943;-90
2020/12/15 08:37:41;;;;;;;;;;;6.40;99.90;;;;;;5016000;28;19919;-91
2020/12/15 08:40:12;;;;;;;;;;;6.40;99.90;;;;;;5015323;28;19913;-89
2020/12/15 08:42:44;;;;;;;;;;;6.40;99.90;;;;;;5015538;28;20330;-89
2020/12/15 08:45:15;;;;;;;;;;;6.30;99.90;;;;;;5015139;28;20023;-91
2020/12/15 08:47:47;;;;;;;;;;;6.40;99.90;;;;;;5015805;28;19913;-90
2020/12/15 08:50:16;;;;;;;;;;;6.40;99.90;;;;;;5015037;28;20360;-90
2020/12/15 08:52:43;;;;;;;;;;;6.40;99.90;;;;;;5031468;28;19913;-93
2020/12/15 08:55:08;;;;;;;;;;;6.40;99.90;;;;;;5015174;28;19971;-90
2020/12/15 08:57:34;;;;;;;;;;;6.40;99.90;;;;;;5014983;28;19913;-91
2020/12/15 09:00:10;;;;;;;;;;;6.40;99.90;;;;;;5015265;28;19913;-91
2020/12/15 09:02:38;;;;;;;;;;;6.40;99.90;;;;;;5014980;28;19919;-91
2020/12/15 09:05:10;;;;;;;;;;;6.40;99.90;;;;;;5013904;28;19928;-91
2020/12/15 09:07:41;;;;;;;;;;;6.40;99.90;;;;;;5015181;28;19913;-90
2020/12/15 09:10:17;;;;;;;;;;;6.50;99.90;;;;;;5014828;28;20392;-90
2020/12/15 09:12:43;;;;;;;;;;;6.40;99.90;;;;;;5014986;28;20365;-89
2020/12/15 09:15:09;;;;;;;;;;;6.50;99.90;;;;;;5014867;28;20070;-91
2020/12/15 09:17:38;;;;;;;;;;;6.40;99.90;;;;;;5014636;28;20011;-92
2020/12/15 09:20:08;;;;;;;;;;;6.40;99.90;;;;;;5014842;28;19913;-90
2020/12/15 09:22:37;;;;;;;;;;;6.60;99.90;;;;;;5014598;28;20055;-89
2020/12/15 09:25:13;;;;;;;;;;;6.60;99.90;;;;;;5014644;28;19975;-90
2020/12/15 09:27:45;;;;;;;;;;;6.50;99.90;;;;;;5014522;28;19920;-91
2020/12/15 09:30:12;;;;;;;;;;;6.60;99.90;;;;;;5014753;28;19967;-90
2020/12/15 09:32:39;;;;;;;;;;;6.60;99.90;;;;;;5014634;28;20406;-89
2020/12/15 09:35:04;;;;;;;;;;;6.60;99.90;;;;;;5014714;28;20372;-89
2020/12/15 09:37:33;;;;;;;;;;;6.60;99.90;;;;;;5014493;28;19920;-90
2020/12/15 09:40:01;;;;;;;;;;;6.70;99.90;;;;;;5016496;28;20380;-90
2020/12/15 09:42:32;;;;;;;;;;;6.70;99.90;;;;;;5016662;28;20395;-91
2020/12/15 09:45:01;;;;;;;;;;;6.70;99.90;;;;;;5015315;28;19925;-90
2020/12/15 09:47:26;;;;;;;;;;;6.70;99.90;;;;;;5014725;28;19917;-90
2020/12/15 09:49:55;;;;;;;;;;;6.70;99.90;;;;;;5014726;28;19913;-90
2020/12/15 09:52:24;;;;;;;;;;;6.70;99.90;;;;;;5014406;28;19919;-89
2020/12/15 09:54:52;;;;;;;;;;;6.70;99.90;;;;;;5013923;28;19912;-90
2020/12/15 09:57:21;;;;;;;;;;;6.80;99.90;;;;;;5014420;28;19956;-90
2020/12/15 09:59:50;;;;;;;;;;;6.70;99.90;;;;;;5014331;28;19913;-90
2020/12/15 10:02:16;;;;;;;;;;;6.70;99.90;;;;;;5013875;28;19920;-92
2020/12/15 10:04:46;;;;;;;;;;;6.80;99.90;;;;;;5013469;28;20310;-90
2020/12/15 10:07:13;;;;;;;;;;;6.80;99.90;;;;;;5014163;28;19913;-89
2020/12/15 10:09:43;;;;;;;;;;;6.80;99.90;;;;;;5013719;28;19917;-91
2020/12/15 10:12:09;;;;;;;;;;;6.80;99.90;;;;;;5014210;28;19910;-90
2020/12/15 10:14:35;;;;;;;;;;;6.90;99.90;;;;;;5013519;28;19913;-90
2020/12/15 10:17:03;;;;;;;;;;;7.00;99.90;;;;;;5014015;28;19916;-90
2020/12/15 10:19:29;;;;;;;;;;;7.00;99.90;;;;;;5013703;28;19929;-91
2020/12/15 10:21:57;;;;;;;;;;;7.10;99.90;;;;;;5013604;28;19916;-90
2020/12/15 10:24:23;;;;;;;;;;;7.10;99.90;;;;;;5013659;28;19921;-89
2020/12/15 10:26:51;;;;;;;;;;;7.20;99.90;;;;;;5014105;28;19917;-90
2020/12/15 10:29:19;;;;;;;;;;;7.20;99.90;;;;;;5014472;28;19959;-89
2020/12/15 10:31:50;;;;;;;;;;;7.20;99.90;;;;;;5031269;28;20032;-91
2020/12/15 10:34:19;;;;;;;;;;;7.20;99.90;;;;;;5013931;28;19920;-91
2020/12/15 10:36:46;;;;;;;;;;;7.30;99.90;;;;;;5014325;28;20357;-90
2020/12/15 10:39:14;;;;;;;;;;;7.30;99.90;;;;;;5013908;28;19958;-89
2020/12/15 10:41:43;;;;;;;;;;;7.40;99.90;;;;;;5013818;28;19913;-89
2020/12/15 10:44:14;;;;;;;;;;;7.40;99.90;;;;;;5013656;28;19921;-89
2020/12/15 10:46:50;;;;;;;;;;;7.40;99.90;;;;;;5013362;28;20292;-90
2020/12/15 10:49:16;;;;;;;;;;;7.40;99.90;;;;;;5013428;28;19919;-89
2020/12/15 10:51:42;;;;;;;;;;;7.50;99.90;;;;;;5013698;28;19913;-90
2020/12/15 10:54:09;;;;;;;;;;;7.50;99.90;;;;;;5013531;28;19916;-91
2020/12/15 10:56:34;;;;;;;;;;;7.50;99.90;;;;;;5030868;28;19920;-90
2020/12/15 10:59:00;;;;;;;;;;;7.50;99.90;;;;;;5013448;28;19914;-90
2020/12/15 11:01:26;;;;;;;;;;;7.50;99.90;;;;;;5013789;28;20257;-90
2020/12/15 11:03:53;;;;;;;;;;;7.50;99.90;;;;;;5012926;28;20304;-89
2020/12/15 11:06:25;;;;;;;;;;;7.50;99.90;;;;;;5013445;28;19979;-90
2020/12/15 11:08:51;;;;;;;;;;;7.60;99.90;;;;;;5013070;28;19913;-92
2020/12/15 11:11:19;;;;;;;;;;;7.60;99.90;;;;;;5013602;28;19920;-90
2020/12/15 11:13:52;;;;;;;;;;;7.60;99.90;;;;;;5012965;28;19913;-90
2020/12/15 11:16:28;;;;;;;;;;;7.60;99.90;;;;;;5013268;28;19952;-90
2020/12/15 11:18:56;;;;;;;;;;;7.50;99.90;;;;;;5013693;28;19913;-91
2020/12/15 11:21:24;;;;;;;;;;;7.50;99.90;;;;;;5013529;28;19920;-90
2020/12/15 11:23:50;;;;;;;;;;;7.50;99.90;;;;;;5013324;28;19928;-90
2020/12/15 11:26:16;;;;;;;;;;;7.60;99.90;;;;;;5013331;28;19913;-91
2020/12/15 11:28:42;;;;;;;;;;;7.60;99.90;;;;;;5015956;28;19919;-90
2020/12/15 11:31:09;;;;;;;;;;;7.70;99.90;;;;;;5016901;28;19917;-91
2020/12/15 11:33:37;;;;;;;;;;;7.70;99.90;;;;;;5016869;28;19915;-90
2020/12/15 11:36:03;;;;;;;;;;;7.60;99.90;;;;;;5017106;28;20365;-92
2020/12/15 11:38:28;;;;;;;;;;;7.70;99.90;;;;;;5016732;28;19920;-90
2020/12/15 11:41:01;;;;;;;;;;;7.70;99.90;;;;;;5017210;28;19920;-89
2020/12/15 11:43:36;;;;;;;;;;;7.70;99.90;;;;;;5018936;28;19921;-90
2020/12/15 11:46:05;;;;;;;;;;;7.60;99.90;;;;;;5017204;28;20403;-92
2020/12/15 11:48:33;;;;;;;;;;;7.70;99.90;;;;;;5016465;28;19921;-89
2020/12/15 11:51:01;;;;;;;;;;;7.70;99.90;;;;;;5016600;28;20020;-91
2020/12/15 11:53:29;;;;;;;;;;;7.70;99.90;;;;;;5017118;28;19963;-89
2020/12/15 11:55:55;;;;;;;;;;;7.70;99.90;;;;;;5016596;28;19913;-89
2020/12/15 11:58:21;;;;;;;;;;;7.70;99.90;;;;;;5016482;28;19924;-90
2020/12/15 12:00:49;;;;;;;;;;;7.70;99.90;;;;;;5016697;28;19920;-89
2020/12/15 12:03:17;;;;;;;;;;;7.70;99.90;;;;;;5016378;28;19963;-89
2020/12/15 12:05:42;;;;;;;;;;;7.70;99.90;;;;;;5033446;28;19920;-90
2020/12/15 12:08:10;;;;;;;;;;;7.70;99.90;;;;;;5016092;28;19913;-89
2020/12/15 12:10:36;;;;;;;;;;;7.80;99.90;;;;;;5016211;28;19935;-91
2020/12/15 12:13:02;;;;;;;;;;;7.80;99.90;;;;;;5016204;28;20007;-91
2020/12/15 12:15:30;;;;;;;;;;;7.90;99.90;;;;;;5015992;28;20011;-91
2020/12/15 12:17:57;;;;;;;;;;;7.80;99.90;;;;;;5016064;28;19913;-90
2020/12/15 12:20:29;;;;;;;;;;;7.80;99.90;;;;;;5016041;28;19913;-90
2020/12/15 12:22:55;;;;;;;;;;;7.90;99.90;;;;;;5015860;28;19913;-91
2020/12/15 12:25:23;;;;;;;;;;;7.90;99.90;;;;;;5016158;28;19987;-90
2020/12/15 12:27:49;;;;;;;;;;;7.90;99.90;;;;;;5015895;28;19979;-90
2020/12/15 12:30:15;;;;;;;;;;;8.00;99.90;;;;;;5015909;28;20376;-89
2020/12/15 12:32:40;;;;;;;;;;;8.00;99.90;;;;;;5015732;28;19932;-90
2020/12/15 12:35:06;;;;;;;;;;;8.00;99.90;;;;;;5015643;28;19919;-90
2020/12/15 12:37:32;;;;;;;;;;;8.00;99.90;;;;;;5015514;28;19921;-89
2020/12/15 12:39:57;;;;;;;;;;;8.20;99.90;;;;;;5015982;28;19913;-91
2020/12/15 12:42:23;;;;;;;;;;;8.20;99.90;;;;;;5015822;28;20008;-90
2020/12/15 12:44:49;;;;;;;;;;;8.20;99.90;;;;;;5015492;28;20015;-91
2020/12/15 12:47:14;;;;;;;;;;;8.30;99.90;;;;;;5015599;28;19920;-89
2020/12/15 12:49:42;;;;;;;;;;;8.30;99.90;;;;;;5015619;28;19920;-90
2020/12/15 12:52:08;;;;;;;;;;;8.30;99.90;;;;;;5015621;28;19921;-91
2020/12/15 12:54:36;;;;;;;;;;;8.30;99.90;;;;;;5015717;28;20055;-90
2020/12/15 12:57:01;;;;;;;;;;;8.40;99.90;;;;;;5015383;28;19920;-90
2020/12/15 12:59:37;;;;;;;;;;;8.30;99.90;;;;;;5015476;28;19913;-89
2020/12/15 13:02:03;;;;;;;;;;;8.30;99.90;;;;;;5015797;28;20452;-90
2020/12/15 13:04:33;;;;;;;;;;;8.30;99.90;;;;;;5015149;28;19925;-90
2020/12/15 13:06:59;;;;;;;;;;;8.30;99.90;;;;;;5015287;28;20368;-91
2020/12/15 13:09:29;;;;;;;;;;;8.40;99.90;;;;;;5015249;28;19920;-89
2020/12/15 13:11:58;;;;;;;;;;;8.40;99.90;;;;;;5015069;28;19920;-89
2020/12/15 13:14:25;;;;;;;;;;;8.40;99.90;;;;;;5015384;28;19913;-89
2020/12/15 13:16:51;;;;;;;;;;;8.40;99.90;;;;;;5014316;28;19925;-90
2020/12/15 13:19:16;;;;;;;;;;;8.40;99.90;;;;;;5007836;28;20207;-89
2020/12/15 13:21:42;;;;;;;;;;;8.40;99.90;;;;;;5014332;28;19913;-90
2020/12/15 13:24:08;;;;;;;;;;;8.40;99.90;;;;;;5031926;28;20368;-89
2020/12/15 13:26:33;;;;;;;;;;;8.40;99.90;;;;;;5014526;28;19919;-91
2020/12/15 13:29:01;;;;;;;;;;;8.40;99.90;;;;;;5015137;28;20268;-92
2020/12/15 13:31:29;;;;;;;;;;;8.40;99.90;;;;;;5015153;28;19925;-90
2020/12/15 13:33:57;;;;;;;;;;;8.30;99.90;;;;;;5014558;28;19995;-89
2020/12/15 13:36:23;;;;;;;;;;;8.30;99.90;;;;;;5014986;28;19913;-89
2020/12/15 13:38:48;;;;;;;;;;;8.40;99.90;;;;;;5015968;28;19920;-89
2020/12/15 13:41:14;;;;;;;;;;;8.40;99.90;;;;;;5017902;28;20174;-90
2020/12/15 13:43:45;;;;;;;;;;;8.30;99.90;;;;;;5016697;28;19964;-88
2020/12/15 13:46:13;;;;;;;;;;;8.30;99.90;;;;;;5014451;28;19958;-89
2020/12/15 13:48:41;;;;;;;;;;;8.40;99.90;;;;;;5014316;28;20000;-90
2020/12/15 13:51:07;;;;;;;;;;;8.40;99.90;;;;;;5014166;28;20364;-91
2020/12/15 13:53:34;;;;;;;;;;;8.40;99.90;;;;;;5014559;28;19924;-90
2020/12/15 13:56:00;;;;;;;;;;;8.40;99.90;;;;;;5014578;28;19913;-91
2020/12/15 13:58:26;;;;;;;;;;;8.40;99.90;;;;;;5014271;28;19913;-90
2020/12/15 14:00:54;;;;;;;;;;;8.50;99.90;;;;;;5014101;28;19943;-89
2020/12/15 14:03:22;;;;;;;;;;;8.50;99.90;;;;;;5014424;28;19920;-90
2020/12/15 14:05:48;;;;;;;;;;;8.50;99.90;;;;;;5014614;28;19920;-89
2020/12/15 14:08:13;;;;;;;;;;;8.50;99.90;;;;;;5014282;28;20173;-90
2020/12/15 14:10:39;;;;;;;;;;;8.50;99.90;;;;;;5014294;28;19920;-89
2020/12/15 14:13:05;;;;;;;;;;;8.50;99.90;;;;;;5014250;28;19913;-89
2020/12/15 14:15:33;;;;;;;;;;;8.50;99.90;;;;;;5014115;28;20284;-89
2020/12/15 14:18:01;;;;;;;;;;;8.50;99.90;;;;;;5014182;28;19913;-89
2020/12/15 14:20:29;;;;;;;;;;;8.50;99.90;;;;;;5013643;28;19920;-91
2020/12/15 14:22:57;;;;;;;;;;;8.50;99.90;;;;;;5014019;28;19913;-89
2020/12/15 14:25:23;;;;;;;;;;;8.50;99.90;;;;;;5013746;28;20020;-90
2020/12/15 14:27:53;;;;;;;;;;;8.50;99.90;;;;;;5013863;28;20007;-90
2020/12/15 14:30:19;;;;;;;;;;;8.40;99.90;;;;;;5014523;28;19913;-89
2020/12/15 14:32:44;;;;;;;;;;;8.40;99.90;;;;;;5013203;28;19925;-89
2020/12/15 14:35:14;;;;;;;;;;;8.40;99.90;;;;;;5031424;28;19909;-89